Time;durP1;ratioP1;P1;durP2;ratioP2;P2;SDS_P1;SDS_P2;PMS_P1;PMS_P2;Temp;Humidity;BMP_temperature;BMP_pressure;BME280_temperature;BME280_humidity;BME280_pressure;Samples;Min_cycle;Max_cycle;Signal;HPM_P1;HPM_P2
2023/01/01 00:00:41;;;;;;;;;;;;;;;16.45;66.95;99705.78;5077188;28;19920;-57
2023/01/01 00:03:06;;;;;;;;;;;;;;;16.45;66.82;99708.41;5083230;28;20011;-56
2023/01/01 00:05:32;;;;;;;;;;;;;;;16.47;66.83;99696.75;5077836;28;19942;-58
2023/01/01 00:07:57;;;;;;;;;;;;;;;16.47;66.41;99702.06;5076202;28;19920;-58
2023/01/01 00:10:28;;;;;;;;;;;;;;;16.41;66.99;99710.38;5078650;28;19924;-58
2023/01/01 00:12:54;;;;;;;;;;;;;;;16.33;66.94;99715.25;5090337;28;19931;-58
2023/01/01 00:15:20;;;;;;;;;;;;;;;16.35;66.68;99721.31;5089269;28;19927;-58
2023/01/01 00:17:45;;;;;;;;;;;;;;;16.40;66.57;99718.44;5087481;28;19924;-57
2023/01/01 00:20:11;;;;;;;;;;;;;;;16.45;66.36;99703.13;5086577;28;19924;-58
2023/01/01 00:22:36;;;;;;;;;;;;;;;16.57;65.85;99707.72;5089814;28;20007;-58
2023/01/01 00:25:02;;;;;;;;;;;;;;;16.38;66.12;99697.28;5090981;28;19920;-57
2023/01/01 00:27:27;;;;;;;;;;;;;;;16.19;66.53;99701.91;5086358;28;20425;-58
2023/01/01 00:29:52;;;;;;;;;;;;;;;16.03;66.88;99701.91;5074482;28;19928;-58
2023/01/01 00:32:18;;;;;;;;;;;;;;;15.96;67.25;99697.91;5083358;28;19931;-57
2023/01/01 00:34:43;;;;;;;;;;;;;;;15.96;67.23;99690.81;5081388;28;20344;-57
2023/01/01 00:37:08;;;;;;;;;;;;;;;15.87;67.51;99698.38;5075461;28;19929;-58
2023/01/01 00:39:33;;;;;;;;;;;;;;;15.84;67.59;99695.88;5105404;28;20011;-58
2023/01/01 00:41:59;;;;;;;;;;;;;;;15.80;67.49;99697.00;5090757;28;19984;-57
2023/01/01 00:44:24;;;;;;;;;;;;;;;15.63;67.90;99711.09;5087246;28;20387;-58
2023/01/01 00:46:49;;;;;;;;;;;;;;;15.76;67.67;99702.47;5081908;28;20011;-59
2023/01/01 00:49:15;;;;;;;;;;;;;;;15.73;67.56;99715.88;5081903;28;19920;-58
2023/01/01 00:51:40;;;;;;;;;;;;;;;15.70;67.55;99726.63;5079645;28;20287;-57
2023/01/01 00:54:05;;;;;;;;;;;;;;;15.64;67.71;99731.34;5076287;28;20047;-57
2023/01/01 00:56:31;;;;;;;;;;;;;;;15.63;67.61;99722.56;5077163;28;20011;-58
2023/01/01 00:58:56;;;;;;;;;;;;;;;15.58;67.91;99729.03;5081945;28;19964;-58
2023/01/01 01:01:22;;;;;;;;;;;;;;;15.52;68.05;99717.84;5076072;28;19928;-58
2023/01/01 01:03:47;;;;;;;;;;;;;;;15.72;67.46;99718.63;5075217;28;20307;-58
2023/01/01 01:06:13;;;;;;;;;;;;;;;15.51;67.88;99726.69;5076650;28;19925;-57
2023/01/01 01:08:40;;;;;;;;;;;;;;;15.47;67.78;99722.50;5075735;28;19924;-57
2023/01/01 01:11:09;;;;;;;;;;;;;;;15.69;67.15;99718.78;5075593;28;19927;-58
2023/01/01 01:13:35;;;;;;;;;;;;;;;15.71;66.93;99730.97;5075779;28;20379;-56
2023/01/01 01:16:01;;;;;;;;;;;;;;;15.71;66.80;99738.06;5075575;28;19920;-58
2023/01/01 01:18:26;;;;;;;;;;;;;;;15.69;67.00;99742.59;5076244;28;20022;-57
2023/01/01 01:20:52;;;;;;;;;;;;;;;15.60;67.05;99743.03;5084016;28;20464;-57
2023/01/01 01:23:18;;;;;;;;;;;;;;;15.63;66.95;99745.53;5086622;28;20418;-58
2023/01/01 01:25:43;;;;;;;;;;;;;;;15.39;67.59;99740.56;5094009;28;19966;-57
2023/01/01 01:28:08;;;;;;;;;;;;;;;15.58;67.02;99747.56;5093944;28;20001;-58
2023/01/01 01:30:36;;;;;;;;;;;;;;;15.58;67.07;99739.63;5091110;28;19979;-58
2023/01/01 01:33:01;;;;;;;;;;;;;;;15.57;66.85;99729.97;5085034;28;19928;-57
2023/01/01 01:35:28;;;;;;;;;;;;;;;15.59;66.85;99743.97;5078545;28;20011;-58
2023/01/01 01:37:53;;;;;;;;;;;;;;;15.53;66.50;99738.09;5084410;28;19964;-57
2023/01/01 01:40:19;;;;;;;;;;;;;;;15.53;66.56;99734.59;5087352;28;19985;-58
2023/01/01 01:42:45;;;;;;;;;;;;;;;15.58;66.62;99737.84;5093709;28;19930;-58
2023/01/01 01:45:10;;;;;;;;;;;;;;;15.66;66.33;99737.47;5091657;28;19916;-57
2023/01/01 01:47:36;;;;;;;;;;;;;;;15.52;66.58;99738.19;5079793;28;19924;-56
2023/01/01 01:50:01;;;;;;;;;;;;;;;15.51;66.48;99747.88;5089300;28;19916;-57
2023/01/01 01:52:27;;;;;;;;;;;;;;;15.65;65.97;99741.06;5078655;28;19928;-55
2023/01/01 01:54:53;;;;;;;;;;;;;;;15.58;66.02;99747.56;5079247;28;19925;-57
2023/01/01 01:57:19;;;;;;;;;;;;;;;15.56;65.92;99754.72;5080351;28;20159;-56
2023/01/01 01:59:47;;;;;;;;;;;;;;;15.72;65.48;99751.25;5083990;28;19950;-57
2023/01/01 02:02:28;;;;;;;;;;;;;;;15.68;65.57;99754.16;5084082;28;19921;-57
2023/01/01 02:04:54;;;;;;;;;;;;;;;15.62;65.63;99749.13;5078960;28;19920;-57
2023/01/01 02:07:21;;;;;;;;;;;;;;;15.51;65.83;99757.63;5083735;28;19921;-57
2023/01/01 02:09:46;;;;;;;;;;;;;;;15.68;65.16;99759.44;5083223;28;20360;-56
2023/01/01 02:12:12;;;;;;;;;;;;;;;15.72;65.08;99755.69;5092461;28;19969;-57
2023/01/01 02:14:37;;;;;;;;;;;;;;;15.62;65.09;99765.00;5092100;28;19977;-56
2023/01/01 02:17:08;;;;;;;;;;;;;;;15.74;65.05;99753.81;5093284;28;19916;-56
2023/01/01 02:19:42;;;;;;;;;;;;;;;15.87;64.56;99749.56;5082649;28;19928;-58
2023/01/01 02:22:07;;;;;;;;;;;;;;;15.88;64.18;99755.72;5078208;28;20015;-56
2023/01/01 02:24:32;;;;;;;;;;;;;;;15.71;64.55;99754.81;5079437;28;20065;-57
2023/01/01 02:27:00;;;;;;;;;;;;;;;15.69;64.82;99739.97;5081425;28;20303;-61
2023/01/01 02:29:26;;;;;;;;;;;;;;;15.67;64.72;99731.22;5079583;28;19959;-56
2023/01/01 02:31:57;;;;;;;;;;;;;;;15.76;64.41;99744.84;5078136;28;19966;-57
2023/01/01 02:34:25;;;;;;;;;;;;;;;15.72;64.53;99735.38;5079631;28;19920;-57
2023/01/01 02:36:53;;;;;;;;;;;;;;;15.63;64.58;99724.34;5078056;28;20009;-58
2023/01/01 02:39:21;;;;;;;;;;;;;;;15.50;64.73;99732.09;5083601;28;19924;-58
2023/01/01 02:41:48;;;;;;;;;;;;;;;15.54;64.54;99715.09;5076165;28;19920;-56
2023/01/01 02:44:14;;;;;;;;;;;;;;;15.49;64.80;99728.59;5076627;28;20338;-56
2023/01/01 02:46:39;;;;;;;;;;;;;;;15.57;64.52;99735.28;5081099;28;19925;-55
2023/01/01 02:49:04;;;;;;;;;;;;;;;15.65;64.19;99736.63;5088233;28;19924;-55
2023/01/01 02:51:48;;;;;;;;;;;;;;;15.52;64.34;99735.53;5090820;28;19928;-56
2023/01/01 02:54:16;;;;;;;;;;;;;;;15.58;64.30;99739.63;5088937;28;20004;-59
2023/01/01 02:56:45;;;;;;;;;;;;;;;15.58;64.04;99737.84;5077637;28;19920;-58
2023/01/01 03:02:23;;;;;;;;;;;;;;;15.75;63.53;99739.63;5082702;28;20033;-58
2023/01/01 03:05:07;;;;;;;;;;;;;;;15.62;63.80;99749.97;5076352;28;19920;-57
2023/01/01 03:07:44;;;;;;;;;;;;;;;15.55;63.80;99755.66;5077966;28;20366;-56
2023/01/01 03:10:39;;;;;;;;;;;;;;;15.78;63.48;99763.31;5082733;28;19924;-56
2023/01/01 03:13:11;;;;;;;;;;;;;;;15.75;63.41;99763.47;5068130;28;20015;-56
2023/01/01 03:15:39;;;;;;;;;;;;;;;15.65;63.35;99771.03;5078482;28;19920;-57
2023/01/01 03:18:13;;;;;;;;;;;;;;;15.65;63.64;99770.19;5087026;28;19920;-58
2023/01/01 03:20:40;;;;;;;;;;;;;;;15.67;63.27;99773.59;5090826;28;19921;-58
2023/01/01 03:23:08;;;;;;;;;;;;;;;15.71;63.13;99764.56;5079976;28;19920;-55
2023/01/01 03:25:38;;;;;;;;;;;;;;;15.59;63.19;99760.72;5077262;28;19920;-57
2023/01/01 03:28:10;;;;;;;;;;;;;;;15.65;63.06;99759.59;5076156;28;19924;-58
2023/01/01 03:30:37;;;;;;;;;;;;;;;15.68;63.04;99760.28;5077217;28;19935;-58
2023/01/01 03:33:04;;;;;;;;;;;;;;;15.64;63.24;99763.13;5077053;28;19920;-57
2023/01/01 03:35:39;;;;;;;;;;;;;;;15.66;62.95;99761.31;5077875;28;19931;-57
2023/01/01 03:38:08;;;;;;;;;;;;;;;15.63;62.60;99762.28;5075702;28;19920;-57
2023/01/01 03:40:36;;;;;;;;;;;;;;;15.58;62.87;99771.41;5086568;28;19920;-58
2023/01/01 03:43:04;;;;;;;;;;;;;;;15.79;62.47;99764.16;5076878;28;20437;-56
2023/01/01 03:45:36;;;;;;;;;;;;;;;15.68;62.30;99760.28;5077875;28;20024;-57
2023/01/01 03:48:03;;;;;;;;;;;;;;;15.76;62.38;99763.41;5075852;28;19927;-57
2023/01/01 03:50:36;;;;;;;;;;;;;;;15.72;62.39;99766.28;5077562;28;19928;-57
2023/01/01 03:53:12;;;;;;;;;;;;;;;15.55;62.42;99774.19;5080342;28;20001;-56
2023/01/01 03:55:44;;;;;;;;;;;;;;;15.69;62.29;99771.75;5090169;28;19932;-56
2023/01/01 03:58:20;;;;;;;;;;;;;;;15.63;62.22;99783.47;5085073;28;19967;-57
2023/01/01 04:01:08;;;;;;;;;;;;;;;15.66;62.19;99771.91;5077336;28;19924;-57
2023/01/01 04:03:34;;;;;;;;;;;;;;;15.74;62.10;99777.66;5089159;28;20003;-57
2023/01/01 04:06:00;;;;;;;;;;;;;;;15.56;62.12;99782.09;5088372;28;19931;-57
2023/01/01 04:08:26;;;;;;;;;;;;;;;15.65;61.83;99780.78;5088585;28;19978;-55
2023/01/01 04:10:56;;;;;;;;;;;;;;;15.69;61.87;99782.34;5090905;28;20349;-55
2023/01/01 04:13:21;;;;;;;;;;;;;;;15.55;61.85;99792.75;5082999;28;20315;-55
2023/01/01 04:15:47;;;;;;;;;;;;;;;15.52;62.03;99793.78;5076686;28;19920;-56
2023/01/01 04:18:12;;;;;;;;;;;;;;;15.53;61.60;99796.31;5076396;28;20284;-56
2023/01/01 04:20:37;;;;;;;;;;;;;;;15.62;61.18;99780.91;5077120;28;19959;-55
2023/01/01 04:23:02;;;;;;;;;;;;;;;15.79;60.89;99780.91;5076248;28;20273;-55
2023/01/01 04:25:28;;;;;;;;;;;;;;;15.74;61.01;99791.75;5076750;28;19957;-56
2023/01/01 04:27:53;;;;;;;;;;;;;;;15.58;61.00;99784.66;5075289;28;20302;-56
2023/01/01 04:30:19;;;;;;;;;;;;;;;15.67;60.87;99792.13;5077300;28;20077;-56
2023/01/01 04:32:44;;;;;;;;;;;;;;;15.64;60.87;99786.97;5077100;28;19924;-56
2023/01/01 04:35:13;;;;;;;;;;;;;;;15.65;60.88;99796.66;5089652;28;19969;-56
2023/01/01 04:37:40;;;;;;;;;;;;;;;15.78;60.51;99784.50;5089639;28;19924;-57
2023/01/01 04:40:06;;;;;;;;;;;;;;;15.73;60.34;99789.19;5080306;28;20363;-55
2023/01/01 04:42:31;;;;;;;;;;;;;;;15.77;60.00;99796.03;5076493;28;19921;-56
2023/01/01 04:44:57;;;;;;;;;;;;;;;15.85;60.04;99790.34;5075125;28;19921;-56
2023/01/01 04:47:22;;;;;;;;;;;;;;;15.79;59.92;99788.84;5074015;28;19929;-56
2023/01/01 04:49:47;;;;;;;;;;;;;;;15.83;59.99;99798.34;5090469;28;20393;-56
2023/01/01 04:52:13;;;;;;;;;;;;;;;15.88;59.78;99798.09;5086971;28;19924;-57
2023/01/01 04:54:38;;;;;;;;;;;;;;;15.76;59.88;99799.63;5097121;28;19946;-55
2023/01/01 04:57:03;;;;;;;;;;;;;;;15.65;59.87;99801.97;5078619;28;19931;-58
2023/01/01 04:59:29;;;;;;;;;;;;;;;15.64;60.28;99816.09;5076291;28;19928;-57
2023/01/01 05:01:55;;;;;;;;;;;;;;;15.63;60.07;99799.34;5075743;28;19925;-57
2023/01/01 05:04:20;;;;;;;;;;;;;;;15.67;59.96;99800.06;5076551;28;20300;-56
2023/01/01 05:06:45;;;;;;;;;;;;;;;15.62;59.87;99799.44;5075616;28;19920;-57
2023/01/01 05:09:11;;;;;;;;;;;;;;;15.64;59.81;99813.44;5075434;28;19947;-55
2023/01/01 05:11:36;;;;;;;;;;;;;;;15.77;59.75;99814.56;5076322;28;19920;-57
2023/01/01 05:14:02;;;;;;;;;;;;;;;15.59;59.63;99820.78;5080387;28;20372;-58
2023/01/01 05:16:28;;;;;;;;;;;;;;;15.66;59.46;99806.31;5085140;28;19930;-57
2023/01/01 05:18:54;;;;;;;;;;;;;;;15.56;59.53;99819.16;5074141;28;19999;-57
2023/01/01 05:21:21;;;;;;;;;;;;;;;15.68;59.34;99809.75;5075669;28;20023;-55
2023/01/01 05:23:46;;;;;;;;;;;;;;;15.71;59.29;99814.88;5073729;28;20011;-57
2023/01/01 05:26:13;;;;;;;;;;;;;;;15.65;58.96;99823.16;5085787;28;20015;-57
2023/01/01 05:28:38;;;;;;;;;;;;;;;15.77;58.94;99833.13;5087485;28;19921;-58
2023/01/01 05:31:05;;;;;;;;;;;;;;;15.68;59.15;99830.94;5077542;28;20015;-57
2023/01/01 05:33:30;;;;;;;;;;;;;;;15.57;58.94;99833.25;5076029;28;19928;-57
2023/01/01 05:35:55;;;;;;;;;;;;;;;15.69;58.43;99822.06;5075312;28;19932;-57
2023/01/01 05:38:21;;;;;;;;;;;;;;;15.60;58.44;99831.31;5078228;28;19935;-57
2023/01/01 05:40:46;;;;;;;;;;;;;;;15.71;58.43;99828.13;5080816;28;20292;-58
2023/01/01 05:43:11;;;;;;;;;;;;;;;15.63;58.44;99836.41;5075069;28;19924;-57
2023/01/01 05:45:37;;;;;;;;;;;;;;;15.52;58.33;99858.16;5080337;28;20387;-57
2023/01/01 05:48:03;;;;;;;;;;;;;;;15.55;58.22;99853.63;5090138;28;19930;-55
2023/01/01 05:50:28;;;;;;;;;;;;;;;15.53;58.04;99859.88;5075135;28;19928;-56
2023/01/01 05:52:54;;;;;;;;;;;;;;;15.56;58.06;99855.34;5080236;28;20272;-55
2023/01/01 05:55:19;;;;;;;;;;;;;;;15.79;57.68;99852.41;5074578;28;19933;-56
2023/01/01 05:57:44;;;;;;;;;;;;;;;15.66;57.46;99857.50;5092333;28;19939;-58
2023/01/01 06:00:10;;;;;;;;;;;;;;;15.78;57.01;99861.31;5081597;28;20394;-56
2023/01/01 06:02:35;;;;;;;;;;;;;;;15.87;56.97;99866.13;5074231;28;20392;-58
2023/01/01 06:05:01;;;;;;;;;;;;;;;15.81;56.80;99861.16;5073353;28;19956;-56
2023/01/01 06:07:26;;;;;;;;;;;;;;;15.90;56.67;99863.31;5076052;28;20373;-58
2023/01/01 06:09:51;;;;;;;;;;;;;;;15.97;56.61;99859.41;5074859;28;19931;-57
2023/01/01 06:12:16;;;;;;;;;;;;;;;15.89;56.55;99858.97;5079409;28;19925;-56
2023/01/01 06:14:42;;;;;;;;;;;;;;;15.81;56.32;99862.94;5079314;28;20019;-57
2023/01/01 06:17:07;;;;;;;;;;;;;;;15.88;56.46;99862.56;5089105;28;19920;-56
2023/01/01 06:19:32;;;;;;;;;;;;;;;15.93;56.35;99851.72;5085034;28;19932;-57
2023/01/01 06:21:58;;;;;;;;;;;;;;;15.97;56.12;99858.56;5078108;28;20019;-55
2023/01/01 06:24:23;;;;;;;;;;;;;;;16.02;56.23;99859.19;5078122;28;19924;-56
2023/01/01 06:26:48;;;;;;;;;;;;;;;15.88;56.05;99862.56;5076007;28;19946;-57
2023/01/01 06:29:14;;;;;;;;;;;;;;;15.87;56.41;99865.28;5078526;28;19924;-57
2023/01/01 06:31:39;;;;;;;;;;;;;;;15.69;56.46;99877.69;5079144;28;19959;-56
2023/01/01 06:34:04;;;;;;;;;;;;;;;15.86;56.26;99882.09;5079988;28;20282;-57
2023/01/01 06:36:29;;;;;;;;;;;;;;;15.83;56.31;99890.19;5076868;28;19940;-56
2023/01/01 06:38:55;;;;;;;;;;;;;;;15.85;56.35;99883.91;5078452;28;19925;-56
2023/01/01 06:41:24;;;;;;;;;;;;;;;15.78;56.27;99901.03;5077706;28;19936;-56
2023/01/01 06:43:50;;;;;;;;;;;;;;;15.80;55.88;99901.84;5078139;28;19931;-55
2023/01/01 06:46:19;;;;;;;;;;;;;;;15.82;56.31;99896.44;5077995;28;19916;-57
2023/01/01 06:48:46;;;;;;;;;;;;;;;15.85;55.64;99899.78;5085454;28;20320;-55
2023/01/01 06:51:18;;;;;;;;;;;;;;;15.81;55.89;99908.84;5079564;28;19924;-55
2023/01/01 06:53:44;;;;;;;;;;;;;;;15.88;55.58;99920.84;5092097;28;19920;-57
2023/01/01 06:56:09;;;;;;;;;;;;;;;16.00;55.62;99920.22;5092447;28;20296;-55
2023/01/01 06:58:35;;;;;;;;;;;;;;;16.09;54.95;99918.03;5088454;28;19924;-57
2023/01/01 07:01:03;;;;;;;;;;;;;;;16.09;54.53;99918.03;5091292;28;19924;-56
2023/01/01 07:03:28;;;;;;;;;;;;;;;16.12;54.67;99918.72;5085919;28;20015;-58
2023/01/01 07:05:54;;;;;;;;;;;;;;;16.25;54.31;99916.28;5077155;28;20020;-56
2023/01/01 07:08:19;;;;;;;;;;;;;;;16.28;54.41;99924.09;5078035;28;19924;-56
2023/01/01 07:10:44;;;;;;;;;;;;;;;16.31;54.12;99934.50;5078697;28;19994;-57
2023/01/01 07:13:09;;;;;;;;;;;;;;;16.43;54.01;99923.25;5077420;28;19928;-57
2023/01/01 07:15:35;;;;;;;;;;;;;;;16.31;53.83;99934.50;5090144;28;19925;-58
2023/01/01 07:18:00;;;;;;;;;;;;;;;16.47;53.77;99926.59;5087914;28;20027;-57
2023/01/01 07:20:25;;;;;;;;;;;;;;;16.41;53.46;99926.94;5086871;28;20383;-57
2023/01/01 07:22:51;;;;;;;;;;;;;;;16.48;53.41;99936.28;5091975;28;19924;-58
2023/01/01 07:25:16;;;;;;;;;;;;;;;16.17;53.63;99940.53;5077451;28;19925;-57
2023/01/01 07:27:41;;;;;;;;;;;;;;;16.20;53.76;99942.19;5077720;28;20359;-58
2023/01/01 07:30:08;;;;;;;;;;;;;;;16.32;53.39;99952.16;5086673;28;19931;-56
2023/01/01 07:32:33;;;;;;;;;;;;;;;16.48;52.92;99949.56;5090599;28;19924;-57
2023/01/01 07:34:58;;;;;;;;;;;;;;;16.45;53.06;99953.22;5079517;28;20303;-58
2023/01/01 07:37:25;;;;;;;;;;;;;;;16.43;53.06;99960.38;5077906;28;19960;-58
2023/01/01 07:39:50;;;;;;;;;;;;;;;16.29;52.99;99960.25;5091798;28;19956;-57
2023/01/01 07:42:15;;;;;;;;;;;;;;;16.39;53.01;99955.31;5080385;28;20016;-58
2023/01/01 07:44:41;;;;;;;;;;;;;;;16.43;53.04;99957.72;5077684;28;19927;-56
2023/01/01 07:47:25;;;;;;;;;;;;;;;16.48;52.90;99958.38;5076784;28;19962;-57
2023/01/01 07:49:50;;;;;;;;;;;;;;;16.57;52.79;99956.16;5076798;28;20428;-55
2023/01/01 07:52:16;;;;;;;;;;;;;;;16.54;52.77;99961.63;5076529;28;19959;-57
2023/01/01 07:54:41;;;;;;;;;;;;;;;16.43;52.67;99973.63;5078581;28;20441;-57
2023/01/01 07:57:06;;;;;;;;;;;;;;;16.51;52.84;99979.38;5083932;28;19925;-56
2023/01/01 07:59:32;;;;;;;;;;;;;;;16.46;52.90;99973.47;5077788;28;20434;-57
2023/01/01 08:01:57;;;;;;;;;;;;;;;16.57;52.37;99966.75;5075638;28;19920;-56
2023/01/01 08:04:22;;;;;;;;;;;;;;;16.62;52.45;99957.63;5076887;28;19928;-57
2023/01/01 08:06:48;;;;;;;;;;;;;;;16.68;52.24;99967.91;5078276;28;20026;-57
2023/01/01 08:09:13;;;;;;;;;;;;;;;16.80;52.26;99952.31;5074766;28;19967;-57
2023/01/01 08:11:38;;;;;;;;;;;;;;;16.70;52.16;99951.91;5077308;28;19926;-58
2023/01/01 08:14:04;;;;;;;;;;;;;;;16.80;52.04;99958.47;5077384;28;19925;-54
2023/01/01 08:16:29;;;;;;;;;;;;;;;16.86;51.90;99963.44;5073699;28;20351;-57
2023/01/01 08:18:54;;;;;;;;;;;;;;;16.85;52.00;99959.06;5074085;28;20382;-58
2023/01/01 08:21:20;;;;;;;;;;;;;;;16.99;51.75;99958.31;5083482;28;19928;-58
2023/01/01 08:23:45;;;;;;;;;;;;;;;16.96;51.69;99958.50;5076949;28;20323;-57
2023/01/01 08:26:15;;;;;;;;;;;;;;;16.87;51.90;99970.44;5077528;28;19946;-55
2023/01/01 08:28:40;;;;;;;;;;;;;;;16.89;51.79;99968.59;5075997;28;19978;-57
2023/01/01 08:31:06;;;;;;;;;;;;;;;17.05;51.71;99976.56;5076858;28;19932;-58
2023/01/01 08:33:31;;;;;;;;;;;;;;;17.08;51.73;99972.91;5076802;28;20291;-58
2023/01/01 08:35:56;;;;;;;;;;;;;;;16.90;51.54;99983.56;5076113;28;19925;-57
2023/01/01 08:38:22;;;;;;;;;;;;;;;17.11;51.73;99988.63;5099461;28;19955;-57
2023/01/01 08:40:47;;;;;;;;;;;;;;;16.99;51.83;99983.06;5080789;28;20004;-58
2023/01/01 08:43:12;;;;;;;;;;;;;;;16.96;52.03;99991.19;5090294;28;19924;-58
2023/01/01 08:45:38;;;;;;;;;;;;;;;17.04;51.97;99993.44;5076774;28;19974;-58
2023/01/01 08:48:03;;;;;;;;;;;;;;;17.08;51.93;100002.09;5077835;28;19978;-56
2023/01/01 08:50:29;;;;;;;;;;;;;;;17.09;51.86;100002.00;5076955;28;19952;-58
2023/01/01 08:52:54;;;;;;;;;;;;;;;17.09;51.83;99995.84;5075741;28;20003;-58
2023/01/01 08:55:19;;;;;;;;;;;;;;;17.03;51.99;99991.69;5076355;28;19930;-57
2023/01/01 08:57:45;;;;;;;;;;;;;;;17.16;51.99;99991.91;5075896;28;19924;-57
2023/01/01 09:00:12;;;;;;;;;;;;;;;17.07;51.97;99995.91;5086524;28;19989;-56
2023/01/01 09:02:37;;;;;;;;;;;;;;;17.10;51.87;99998.41;5089694;28;19931;-58
2023/01/01 09:05:03;;;;;;;;;;;;;;;17.10;51.81;99998.41;5090608;28;20030;-58
2023/01/01 09:07:28;;;;;;;;;;;;;;;17.11;51.61;99999.25;5088728;28;20346;-58
2023/01/01 09:09:53;;;;;;;;;;;;;;;17.08;51.51;100004.75;5087682;28;19939;-58
2023/01/01 09:12:19;;;;;;;;;;;;;;;17.24;51.88;99995.84;5075973;28;19925;-58
2023/01/01 09:14:47;;;;;;;;;;;;;;;17.19;51.51;100005.00;5074862;28;19967;-58
2023/01/01 09:17:12;;;;;;;;;;;;;;;17.12;51.64;100001.84;5076266;28;19974;-56
2023/01/01 09:19:38;;;;;;;;;;;;;;;17.09;52.00;100001.16;5075859;28;19987;-58
2023/01/01 09:22:03;;;;;;;;;;;;;;;17.17;51.82;100015.72;5075593;28;20453;-57
2023/01/01 09:24:28;;;;;;;;;;;;;;;17.23;51.58;100015.38;5076675;28;19925;-56
2023/01/01 09:26:54;;;;;;;;;;;;;;;17.26;51.63;100019.66;5075480;28;19924;-55
2023/01/01 09:29:20;;;;;;;;;;;;;;;17.18;51.37;100021.88;5103099;28;19921;-55
2023/01/01 09:31:46;;;;;;;;;;;;;;;17.24;51.73;100027.72;5075217;28;19920;-55
2023/01/01 09:34:11;;;;;;;;;;;;;;;17.29;51.58;100018.63;5074256;28;20402;-56
2023/01/01 09:36:37;;;;;;;;;;;;;;;17.20;51.32;100015.56;5081866;28;19928;-56
2023/01/01 09:39:02;;;;;;;;;;;;;;;17.24;51.32;100014.44;5089963;28;19978;-56
2023/01/01 09:41:50;;;;;;;;;;;;;;;17.27;51.68;100013.38;5103448;28;20455;-55
2023/01/01 09:44:21;;;;;;;;;;;;;;;17.26;51.25;100011.69;5075532;28;19920;-55
2023/01/01 09:46:47;;;;;;;;;;;;;;;17.32;51.17;100014.03;5079183;28;20411;-56
2023/01/01 09:49:39;;;;;;;;;;;;;;;17.41;50.96;100010.84;5078103;28;19931;-57
2023/01/01 09:52:04;;;;;;;;;;;;;;;17.36;50.73;100010.25;5077228;28;19924;-56
2023/01/01 09:54:35;;;;;;;;;;;;;;;17.47;50.56;100012.28;5080352;28;19928;-57
2023/01/01 09:57:02;;;;;;;;;;;;;;;17.45;50.11;100020.34;5079083;28;20007;-57
2023/01/01 09:59:28;;;;;;;;;;;;;;;17.57;50.17;100025.94;5080077;28;19928;-55
2023/01/01 10:02:10;;;;;;;;;;;;;;;17.73;50.01;100022.31;5078654;28;19925;-58
2023/01/01 10:04:53;;;;;;;;;;;;;;;17.73;49.70;100024.97;5097097;28;19928;-57
2023/01/01 10:07:27;;;;;;;;;;;;;;;17.71;49.86;100026.00;5076572;28;20019;-57
2023/01/01 10:10:18;;;;;;;;;;;;;;;17.97;49.50;100036.03;5077871;28;20375;-58
2023/01/01 10:13:03;;;;;;;;;;;;;;;18.10;49.20;100032.66;5077869;28;20030;-58
2023/01/01 10:15:40;;;;;;;;;;;;;;;18.22;49.17;100019.50;5079612;28;19927;-58
2023/01/01 10:18:25;;;;;;;;;;;;;;;18.18;49.20;100017.97;5083293;28;19928;-56
2023/01/01 10:20:58;;;;;;;;;;;;;;;18.11;48.78;100021.06;5077529;28;19924;-58
2023/01/01 10:23:25;;;;;;;;;;;;;;;18.29;48.97;100032.44;5079426;28;20277;-57
2023/01/01 10:25:51;;;;;;;;;;;;;;;18.43;48.76;100019.16;5078470;28;20098;-56
2023/01/01 10:28:26;;;;;;;;;;;;;;;18.27;47.95;100032.50;5079129;28;20007;-57
2023/01/01 10:30:55;;;;;;;;;;;;;;;18.48;48.24;100026.91;5078464;28;20020;-57
2023/01/01 10:33:21;;;;;;;;;;;;;;;18.28;48.07;100028.94;5079070;28;20018;-56
2023/01/01 10:35:48;;;;;;;;;;;;;;;18.50;47.82;100035.63;5078345;28;20024;-58
2023/01/01 10:38:24;;;;;;;;;;;;;;;18.42;47.53;100023.63;5077015;28;19920;-59
2023/01/01 10:41:01;;;;;;;;;;;;;;;18.61;47.48;100028.72;5091819;28;20400;-58
2023/01/01 10:43:26;;;;;;;;;;;;;;;18.62;47.38;100026.91;5078639;28;19920;-56
2023/01/01 10:45:53;;;;;;;;;;;;;;;18.68;47.20;100031.88;5078954;28;20490;-57
2023/01/01 10:48:20;;;;;;;;;;;;;;;18.29;46.99;100033.28;5091939;28;20387;-57
2023/01/01 10:50:50;;;;;;;;;;;;;;;18.38;47.08;100037.22;5092396;28;19989;-58
2023/01/01 10:53:38;;;;;;;;;;;;;;;18.54;47.41;100055.78;5091773;28;19920;-57
2023/01/01 10:56:04;;;;;;;;;;;;;;;18.56;47.03;100040.59;5085072;28;19924;-58
2023/01/01 10:58:37;;;;;;;;;;;;;;;18.38;47.05;100039.88;5078277;28;19921;-58
2023/01/01 11:01:04;;;;;;;;;;;;;;;18.42;46.94;100044.06;5076933;28;19959;-58
2023/01/01 11:03:29;;;;;;;;;;;;;;;18.43;47.27;100029.81;5076484;28;20348;-58
2023/01/01 11:06:13;;;;;;;;;;;;;;;18.48;47.27;100024.25;5076318;28;20482;-59
2023/01/01 11:08:45;;;;;;;;;;;;;;;18.72;47.29;100028.09;5077950;28;19921;-59
2023/01/01 11:11:18;;;;;;;;;;;;;;;18.54;46.61;100021.19;5077318;28;19921;-58
2023/01/01 11:13:46;;;;;;;;;;;;;;;18.75;46.88;100017.28;5090995;28;19920;-57
2023/01/01 11:16:11;;;;;;;;;;;;;;;18.68;46.81;100013.25;5088168;28;19924;-57
2023/01/01 11:18:37;;;;;;;;;;;;;;;18.72;46.43;100033.44;5078544;28;20295;-58
2023/01/01 11:21:04;;;;;;;;;;;;;;;18.77;46.33;100030.47;5077600;28;19921;-58
2023/01/01 11:23:34;;;;;;;;;;;;;;;18.80;46.35;100043.59;5078641;28;19924;-57
2023/01/01 11:26:12;;;;;;;;;;;;;;;18.63;46.55;100050.78;5077442;28;19920;-58
2023/01/01 11:28:38;;;;;;;;;;;;;;;18.81;46.42;100051.50;5090422;28;20028;-58
2023/01/01 11:31:12;;;;;;;;;;;;;;;18.64;46.71;100049.81;5091534;28;19927;-58
2023/01/01 11:33:53;;;;;;;;;;;;;;;18.57;46.74;100059.13;5089273;28;19927;-58
2023/01/01 11:36:27;;;;;;;;;;;;;;;18.73;46.52;100064.41;5090231;28;19963;-57
2023/01/01 11:39:12;;;;;;;;;;;;;;;18.60;46.33;100068.72;5079969;28;19920;-57
2023/01/01 11:41:46;;;;;;;;;;;;;;;18.51;46.56;100063.94;5074223;28;19920;-57
2023/01/01 11:44:12;;;;;;;;;;;;;;;18.74;46.69;100070.56;5077275;28;19956;-60
2023/01/01 11:46:38;;;;;;;;;;;;;;;18.65;46.65;100059.50;5086113;28;19921;-58
2023/01/01 11:49:11;;;;;;;;;;;;;;;18.58;46.48;100067.94;5093560;28;19943;-58
2023/01/01 11:51:36;;;;;;;;;;;;;;;18.61;46.00;100078.41;5113476;28;19998;-58
2023/01/01 11:54:09;;;;;;;;;;;;;;;18.65;45.97;100077.28;5114798;28;20375;-57
2023/01/01 11:56:35;;;;;;;;;;;;;;;18.65;46.50;100078.13;5109858;28;19977;-58
2023/01/01 11:59:11;;;;;;;;;;;;;;;18.53;46.18;100084.19;5076892;28;20470;-58
2023/01/01 12:01:48;;;;;;;;;;;;;;;18.63;46.12;100096.00;5084916;28;19967;-58
2023/01/01 12:04:22;;;;;;;;;;;;;;;18.61;46.42;100097.03;5076864;28;20375;-57
2023/01/01 12:06:54;;;;;;;;;;;;;;;18.56;45.85;100107.09;5079728;28;20360;-58
2023/01/01 12:09:26;;;;;;;;;;;;;;;18.73;45.87;100108.78;5077764;28;20007;-58
2023/01/01 12:11:56;;;;;;;;;;;;;;;18.55;46.16;100114.22;5087801;28;19930;-58
2023/01/01 12:14:53;;;;;;;;;;;;;;;18.41;45.86;100112.38;5092893;28;19927;-57
2023/01/01 12:17:22;;;;;;;;;;;;;;;18.34;46.04;100121.63;5050936;28;20384;-57
2023/01/01 12:19:58;;;;;;;;;;;;;;;18.39;46.19;100103.63;5072927;28;20038;-58
2023/01/01 12:22:24;;;;;;;;;;;;;;;18.27;45.92;100108.78;5073046;28;19920;-58
2023/01/01 12:24:50;;;;;;;;;;;;;;;18.10;45.98;100123.06;5072707;28;20291;-59
2023/01/01 12:27:37;;;;;;;;;;;;;;;18.41;45.87;100116.84;5074154;28;19920;-57
2023/01/01 12:30:02;;;;;;;;;;;;;;;18.22;45.85;100133.84;5073480;28;19923;-58
2023/01/01 12:32:46;;;;;;;;;;;;;;;18.23;45.80;100124.06;5087692;28;19916;-58
2023/01/01 12:35:30;;;;;;;;;;;;;;;18.15;45.68;100126.28;5094199;28;19924;-57
2023/01/01 12:37:55;;;;;;;;;;;;;;;18.24;45.47;100125.78;5094551;28;19920;-59
2023/01/01 12:40:39;;;;;;;;;;;;;;;18.41;45.34;100144.28;5094427;28;19971;-57
2023/01/01 12:43:10;;;;;;;;;;;;;;;18.44;45.36;100143.25;5094346;28;19916;-59
2023/01/01 12:45:54;;;;;;;;;;;;;;;18.17;45.46;100151.00;5094062;28;19959;-59
2023/01/01 12:48:22;;;;;;;;;;;;;;;18.03;45.67;100158.88;5094459;28;20011;-59
2023/01/01 12:50:55;;;;;;;;;;;;;;;17.85;46.03;100161.63;5091123;28;19916;-58